createdAt,value
2022-11-05T00:00:30.992Z,60.62
2022-11-05T00:03:16.760Z,60.65
2022-11-05T00:06:03.736Z,60.66
2022-11-05T00:08:49.725Z,60.62
2022-11-05T00:11:18.629Z,60.80
2022-11-05T00:14:04.516Z,60.75
2022-11-05T00:16:46.432Z,60.96
2022-11-05T00:19:15.153Z,61.07
2022-11-05T00:22:03.549Z,61.06
2022-11-05T00:24:49.013Z,61.16
2022-11-05T00:27:17.389Z,61.53
2022-11-05T00:29:45.812Z,61.66
2022-11-05T00:32:15.598Z,61.80
2022-11-05T00:34:43.906Z,61.70
2022-11-05T00:37:12.343Z,61.79
2022-11-05T00:39:40.661Z,62.02
2022-11-05T00:42:34.874Z,62.39
2022-11-05T00:45:03.271Z,62.59
2022-11-05T00:47:51.753Z,62.54
2022-11-05T00:50:21.077Z,62.89
2022-11-05T00:52:57.897Z,62.89
2022-11-05T00:55:28.815Z,62.99
2022-11-05T00:57:57.845Z,63.06
2022-11-05T01:00:28.708Z,63.02
2022-11-05T01:03:01.498Z,63.13
2022-11-05T01:05:30.689Z,63.56
2022-11-05T01:07:59.581Z,63.52
2022-11-05T01:10:28.826Z,63.65
2022-11-05T01:12:57.805Z,63.54
2022-11-05T01:15:26.267Z,63.70
2022-11-05T01:17:54.562Z,63.69
2022-11-05T01:20:24.425Z,63.70
2022-11-05T01:22:53.118Z,63.78
2022-11-05T01:25:21.572Z,63.57
2022-11-05T01:27:50.419Z,63.71
2022-11-05T01:30:18.986Z,63.63
2022-11-05T01:32:47.390Z,63.88
2022-11-05T01:35:17.245Z,63.84
2022-11-05T01:37:47.069Z,63.94
2022-11-05T01:40:17.330Z,63.79
2022-11-05T01:42:46.495Z,64.02
2022-11-05T01:45:17.838Z,64.04
2022-11-05T01:47:59.886Z,64.13
2022-11-05T01:50:39.702Z,64.11
2022-11-05T01:53:16.253Z,64.02
2022-11-05T01:55:49.319Z,64.40
2022-11-05T01:58:22.670Z,64.38
2022-11-05T02:00:51.146Z,64.40
2022-11-05T02:03:20.672Z,64.11
2022-11-05T02:05:51.958Z,64.32
2022-11-05T02:08:36.593Z,64.22
2022-11-05T02:11:05.106Z,64.57
2022-11-05T02:13:33.545Z,64.59
2022-11-05T02:16:08.079Z,64.63
2022-11-05T02:18:50.021Z,64.66
2022-11-05T02:21:47.547Z,64.50
2022-11-05T02:24:44.241Z,64.46
2022-11-05T02:27:20.377Z,64.58
2022-11-05T02:30:22.169Z,64.35
2022-11-05T02:33:24.396Z,64.52
2022-11-05T02:36:10.550Z,64.36
2022-11-05T02:38:44.489Z,64.45
2022-11-05T02:41:24.761Z,64.35
2022-11-05T02:44:06.230Z,64.13
2022-11-05T02:46:46.062Z,63.86
2022-11-05T02:49:28.678Z,64.12
2022-11-05T02:52:00.056Z,64.19
2022-11-05T02:54:32.816Z,64.43
2022-11-05T02:57:03.912Z,63.94
2022-11-05T02:59:32.381Z,64.17
2022-11-05T03:02:02.504Z,63.98
2022-11-05T03:04:33.489Z,64.14
2022-11-05T03:07:28.485Z,64.02
2022-11-05T03:10:13.058Z,64.17
2022-11-05T03:12:54.199Z,64.33
2022-11-05T03:15:40.715Z,64.18
2022-11-05T03:18:16.382Z,64.19
2022-11-05T03:20:51.682Z,64.18
2022-11-05T03:23:29.119Z,64.11
2022-11-05T03:26:03.518Z,64.17
2022-11-05T03:28:36.863Z,64.10
2022-11-05T03:31:07.547Z,64.29
2022-11-05T03:33:39.044Z,64.33
2022-11-05T03:36:16.347Z,64.17
2022-11-05T03:38:51.017Z,64.16
2022-11-05T03:41:22.055Z,64.28
2022-11-05T03:43:55.989Z,64.18
2022-11-05T03:46:28.046Z,64.15
2022-11-05T03:48:58.484Z,64.12
2022-11-05T03:51:37.783Z,64.00
2022-11-05T03:54:07.165Z,64.13
2022-11-05T03:56:42.009Z,63.98
2022-11-05T03:59:12.801Z,64.05
2022-11-05T04:01:42.359Z,64.08
2022-11-05T04:04:11.594Z,64.03
2022-11-05T04:06:58.960Z,64.22
2022-11-05T04:09:44.501Z,64.07
2022-11-05T04:12:30.612Z,64.11
2022-11-05T04:14:59.091Z,64.16
2022-11-05T04:17:26.415Z,64.20
2022-11-05T04:20:20.370Z,64.21
2022-11-05T04:23:07.532Z,64.26
2022-11-05T04:25:36.325Z,64.14
2022-11-05T04:28:04.753Z,64.04
2022-11-05T04:30:32.114Z,64.03
2022-11-05T04:33:03.450Z,64.04
2022-11-05T04:35:34.051Z,64.29
2022-11-05T04:38:04.642Z,64.10
2022-11-05T04:40:35.778Z,64.08
2022-11-05T04:43:04.690Z,64.04
2022-11-05T04:45:35.704Z,63.91
2022-11-05T04:48:05.045Z,64.14
2022-11-05T04:50:34.282Z,64.09
2022-11-05T04:53:04.732Z,64.04
2022-11-05T04:55:33.206Z,63.96
2022-11-05T04:58:01.900Z,63.79
2022-11-05T05:00:30.641Z,63.79
2022-11-05T05:02:59.206Z,63.82
2022-11-05T05:05:27.970Z,63.79
2022-11-05T05:07:56.616Z,63.76
2022-11-05T05:10:26.423Z,63.77
2022-11-05T05:12:55.360Z,63.86
2022-11-05T05:15:23.861Z,63.63
2022-11-05T05:17:52.743Z,63.66
2022-11-05T05:20:41.043Z,63.66
2022-11-05T05:23:10.193Z,63.74
2022-11-05T05:25:40.488Z,63.73
2022-11-05T05:28:08.862Z,63.68
2022-11-05T05:30:37.339Z,63.57
2022-11-05T05:33:06.246Z,63.70
2022-11-05T05:35:34.669Z,63.42
2022-11-05T05:38:02.990Z,63.05
2022-11-05T05:40:31.542Z,63.06
2022-11-05T05:43:01.391Z,63.23
2022-11-05T05:45:29.743Z,63.45
2022-11-05T05:47:58.175Z,63.67
2022-11-05T05:50:26.750Z,63.83
2022-11-05T05:52:55.298Z,63.77
2022-11-05T05:55:23.617Z,63.81
2022-11-05T05:57:52.224Z,63.74
2022-11-05T06:00:22.515Z,63.82
2022-11-05T06:02:50.970Z,63.91
2022-11-05T06:05:19.446Z,63.94
2022-11-05T06:07:48.384Z,63.78
2022-11-05T06:10:18.815Z,64.24
2022-11-05T06:12:47.800Z,64.10
2022-11-05T06:15:16.378Z,63.91
2022-11-05T06:17:46.320Z,64.18
2022-11-05T06:20:14.841Z,64.23
2022-11-05T06:22:43.278Z,64.13
2022-11-05T06:25:12.226Z,64.15
2022-11-05T06:27:40.553Z,64.50
2022-11-05T06:30:10.574Z,64.13
2022-11-05T06:32:39.006Z,64.27
2022-11-05T06:35:10.356Z,64.25
2022-11-05T06:37:38.797Z,64.32
2022-11-05T06:40:08.447Z,64.25
2022-11-05T06:42:37.161Z,64.09
2022-11-05T06:45:06.148Z,64.04
2022-11-05T06:47:34.723Z,64.03
2022-11-05T06:50:03.157Z,64.06
2022-11-05T06:52:35.923Z,63.82
2022-11-05T06:55:08.914Z,63.91
2022-11-05T06:57:39.216Z,63.80
2022-11-05T07:00:10.047Z,63.92
2022-11-05T07:02:38.406Z,63.97
2022-11-05T07:05:07.457Z,63.77
2022-11-05T07:07:37.335Z,63.95
2022-11-05T07:10:07.002Z,63.87
2022-11-05T07:12:35.399Z,63.90
2022-11-05T07:15:03.801Z,64.01
2022-11-05T07:17:32.255Z,64.13
2022-11-05T07:20:00.673Z,63.89
2022-11-05T07:22:29.017Z,64.01
2022-11-05T07:24:58.826Z,64.08
2022-11-05T07:27:27.185Z,64.18
2022-11-05T07:29:55.764Z,64.13
2022-11-05T07:32:24.559Z,63.91
2022-11-05T07:34:52.898Z,64.08
2022-11-05T07:37:21.217Z,64.06
2022-11-05T07:39:49.562Z,64.03
2022-11-05T07:42:19.363Z,63.82
2022-11-05T07:44:47.710Z,63.93
2022-11-05T07:47:16.066Z,63.80
2022-11-05T07:49:44.450Z,63.96
2022-11-05T07:52:12.817Z,63.93
2022-11-05T07:54:41.150Z,63.82
2022-11-05T07:57:09.693Z,63.65
2022-11-05T07:59:39.461Z,63.44
2022-11-05T08:02:10.556Z,63.39
2022-11-05T08:04:40.454Z,63.26
2022-11-05T08:07:08.736Z,63.27
2022-11-05T08:09:37.144Z,63.18
2022-11-05T08:12:06.201Z,63.08
2022-11-05T08:14:36.441Z,63.13
2022-11-05T08:17:08.460Z,63.25
2022-11-05T08:19:37.262Z,63.24
2022-11-05T08:22:05.661Z,63.10
2022-11-05T08:24:34.039Z,62.99
2022-11-05T08:27:02.524Z,62.85
2022-11-05T08:29:30.856Z,63.01
2022-11-05T08:31:59.158Z,62.61
2022-11-05T08:34:29.321Z,62.75
2022-11-05T08:36:57.693Z,62.51
2022-11-05T08:39:26.680Z,62.25
2022-11-05T08:41:56.354Z,62.21
2022-11-05T08:44:24.689Z,62.36
2022-11-05T08:46:53.117Z,62.40
2022-11-05T08:49:21.503Z,62.29
2022-11-05T08:51:51.371Z,62.04
2022-11-05T08:54:19.774Z,61.21
2022-11-05T08:56:48.038Z,61.15
2022-11-05T08:59:16.470Z,61.14
2022-11-05T09:01:45.002Z,61.05
2022-11-05T09:04:13.538Z,60.35
2022-11-05T09:06:42.194Z,60.31
2022-11-05T09:09:12.628Z,60.21
2022-11-05T09:12:05.686Z,60.19
2022-11-05T09:14:30.329Z,60.14
2022-11-05T09:16:58.863Z,59.74
2022-11-05T09:19:27.565Z,59.58
2022-11-05T09:21:56.033Z,59.42
2022-11-05T09:24:25.858Z,59.44
2022-11-05T09:26:54.244Z,59.31
2022-11-05T09:29:22.760Z,59.22
2022-11-05T09:31:51.155Z,59.21
2022-11-05T09:34:19.530Z,59.37
2022-11-05T09:36:48.394Z,59.22
2022-11-05T09:39:17.093Z,58.58
2022-11-05T09:41:48.845Z,58.76
2022-11-05T09:44:20.754Z,57.86
2022-11-05T09:46:53.134Z,57.67
2022-11-05T09:49:27.338Z,57.79
2022-11-05T09:51:58.883Z,57.74
2022-11-05T09:54:32.423Z,57.78
2022-11-05T09:57:05.207Z,57.64
2022-11-05T09:59:41.169Z,57.61
2022-11-05T10:02:18.028Z,57.27
2022-11-05T10:04:49.779Z,56.68
2022-11-05T10:07:23.171Z,56.44
2022-11-05T10:09:55.296Z,56.07
2022-11-05T10:12:29.943Z,55.85
2022-11-05T10:15:07.219Z,55.89
2022-11-05T10:17:39.292Z,55.38
2022-11-05T10:20:15.790Z,54.35
2022-11-05T10:22:49.341Z,54.88
2022-11-05T10:25:20.621Z,55.04
2022-11-05T10:27:53.849Z,55.00
2022-11-05T10:30:23.137Z,55.20
2022-11-05T10:32:56.063Z,55.31
2022-11-05T10:35:26.622Z,55.42
2022-11-05T10:37:55.412Z,55.50
2022-11-05T10:40:34.119Z,55.88
2022-11-05T10:43:08.085Z,55.62
2022-11-05T10:45:51.463Z,55.69
2022-11-05T10:48:52.046Z,55.68
2022-11-05T10:51:20.901Z,55.49
2022-11-05T10:54:00.513Z,55.26
2022-11-05T10:56:36.074Z,55.26
2022-11-05T10:59:12.217Z,55.10
2022-11-05T11:01:41.438Z,55.18
2022-11-05T11:04:18.270Z,54.58
2022-11-05T11:06:51.273Z,54.28
2022-11-05T11:09:23.568Z,54.52
2022-11-05T11:12:03.078Z,54.16
2022-11-05T11:14:33.681Z,54.25
2022-11-05T11:17:20.139Z,53.52
2022-11-05T11:19:48.977Z,54.27
2022-11-05T11:22:23.036Z,54.61
2022-11-05T11:24:54.913Z,54.21
2022-11-05T11:27:26.434Z,54.83
2022-11-05T11:30:00.176Z,55.14
2022-11-05T11:32:34.546Z,55.28
2022-11-05T11:35:03.165Z,55.16
2022-11-05T11:37:35.607Z,55.34
2022-11-05T11:40:10.167Z,55.27
2022-11-05T11:42:42.445Z,55.50
2022-11-05T11:45:20.067Z,55.51
2022-11-05T11:47:51.884Z,55.83
2022-11-05T11:50:39.513Z,55.52
2022-11-05T11:53:29.591Z,56.14
2022-11-05T11:56:04.258Z,56.24
2022-11-05T11:58:43.529Z,55.58
2022-11-05T12:01:27.677Z,55.08
2022-11-05T12:04:04.095Z,55.08
2022-11-05T12:06:38.565Z,53.19
2022-11-05T12:09:11.134Z,53.26
2022-11-05T12:11:45.150Z,53.42
2022-11-05T12:14:28.590Z,52.97
2022-11-05T12:17:22.724Z,52.92
2022-11-05T12:20:18.198Z,51.62
2022-11-05T12:23:07.089Z,51.82
2022-11-05T12:25:42.615Z,51.43
2022-11-05T12:28:31.179Z,52.12
2022-11-05T12:31:09.186Z,52.52
2022-11-05T12:33:48.521Z,52.76
2022-11-05T12:36:30.537Z,52.86
2022-11-05T12:39:20.587Z,52.92
2022-11-05T12:41:56.652Z,53.01
2022-11-05T12:44:46.827Z,53.00
2022-11-05T12:47:30.180Z,53.01
2022-11-05T12:50:16.840Z,52.90
2022-11-05T12:53:02.003Z,52.88
2022-11-05T12:55:34.884Z,52.84
2022-11-05T12:58:10.408Z,52.60
2022-11-05T13:00:42.722Z,52.53
2022-11-05T13:03:34.009Z,52.06
2022-11-05T13:06:09.489Z,52.03
2022-11-05T13:08:44.195Z,52.05
2022-11-05T13:11:20.817Z,52.12
2022-11-05T13:13:58.769Z,52.02
2022-11-05T13:16:32.140Z,51.75
2022-11-05T13:19:06.514Z,52.20
2022-11-05T13:21:38.823Z,52.39
2022-11-05T13:24:16.621Z,52.42
2022-11-05T13:26:50.596Z,52.71
2022-11-05T13:29:23.719Z,52.79
2022-11-05T13:32:01.546Z,52.62
2022-11-05T13:34:34.852Z,52.78
2022-11-05T13:37:27.169Z,52.75
2022-11-05T13:39:58.588Z,52.77
2022-11-05T13:42:57.921Z,52.21
2022-11-05T13:45:46.237Z,52.60
2022-11-05T13:48:41.723Z,51.65
2022-11-05T13:51:36.163Z,50.60
2022-11-05T13:54:34.850Z,51.23
2022-11-05T13:57:18.658Z,51.62
2022-11-05T14:00:05.341Z,51.67
2022-11-05T14:02:40.159Z,52.06
2022-11-05T14:05:17.277Z,52.21
2022-11-05T14:07:48.253Z,52.32
2022-11-05T14:10:27.857Z,52.37
2022-11-05T14:12:59.370Z,52.35
2022-11-05T14:15:29.864Z,52.38
2022-11-05T14:18:01.818Z,52.51
2022-11-05T14:20:57.565Z,52.40
2022-11-05T14:23:53.262Z,52.28
2022-11-05T14:26:25.959Z,52.51
2022-11-05T14:29:22.941Z,52.92
2022-11-05T14:32:08.684Z,53.02
2022-11-05T14:34:49.974Z,53.17
2022-11-05T14:37:30.757Z,53.55
2022-11-05T14:40:24.858Z,53.55
2022-11-05T14:42:57.143Z,53.66
2022-11-05T14:45:30.989Z,53.49
2022-11-05T14:48:01.087Z,53.71
2022-11-05T14:50:37.117Z,53.81
2022-11-05T14:53:27.619Z,53.93
2022-11-05T14:56:02.435Z,53.98
2022-11-05T14:58:35.913Z,54.01
2022-11-05T15:01:07.075Z,54.16
2022-11-05T15:04:17.874Z,54.29
2022-11-05T15:07:15.209Z,53.85
2022-11-05T15:09:48.163Z,53.90
2022-11-05T15:12:21.415Z,54.02
2022-11-05T15:14:58.516Z,54.01
2022-11-05T15:17:30.306Z,54.08
2022-11-05T15:20:09.777Z,54.08
2022-11-05T15:22:45.716Z,54.20
2022-11-05T15:25:19.617Z,54.14
2022-11-05T15:28:01.030Z,54.30
2022-11-05T15:30:31.585Z,54.11
2022-11-05T15:33:11.469Z,54.04
2022-11-05T15:35:42.953Z,54.26
2022-11-05T15:38:31.388Z,54.30
2022-11-05T15:41:02.041Z,54.50
2022-11-05T15:43:30.817Z,54.54
2022-11-05T15:46:08.669Z,54.66
2022-11-05T15:48:38.130Z,54.63
2022-11-05T15:51:07.169Z,54.77
2022-11-05T15:54:01.928Z,54.85
2022-11-05T15:56:30.831Z,54.96
2022-11-05T15:59:03.825Z,55.04
2022-11-05T16:01:36.776Z,55.13
2022-11-05T16:04:16.746Z,55.36
2022-11-05T16:06:48.576Z,55.32
2022-11-05T16:09:24.035Z,55.55
2022-11-05T16:12:10.350Z,55.55
2022-11-05T16:14:39.055Z,55.91
2022-11-05T16:17:20.154Z,56.10
2022-11-05T16:19:49.730Z,56.23
2022-11-05T16:22:18.962Z,56.35
2022-11-05T16:24:48.219Z,56.31
2022-11-05T16:27:19.784Z,56.32
2022-11-05T16:29:52.148Z,56.44
2022-11-05T16:32:30.781Z,56.42
2022-11-05T16:35:02.537Z,56.46
2022-11-05T16:37:38.286Z,56.75
2022-11-05T16:40:14.812Z,56.64
2022-11-05T16:42:43.506Z,56.75
2022-11-05T16:45:15.049Z,57.00
2022-11-05T16:47:46.299Z,57.13
2022-11-05T16:50:18.498Z,57.31
2022-11-05T16:52:48.023Z,57.19
2022-11-05T16:55:18.324Z,57.36
2022-11-05T16:57:49.101Z,57.71
2022-11-05T17:00:19.622Z,57.58
2022-11-05T17:02:49.857Z,57.51
2022-11-05T17:05:21.607Z,57.57
2022-11-05T17:07:50.313Z,57.75
2022-11-05T17:10:19.481Z,57.68
2022-11-05T17:12:49.330Z,57.92
2022-11-05T17:15:21.009Z,57.72
2022-11-05T17:17:50.855Z,57.84
2022-11-05T17:20:32.533Z,57.88
2022-11-05T17:23:05.733Z,58.24
2022-11-05T17:25:34.187Z,58.20
2022-11-05T17:28:03.228Z,58.20
2022-11-05T17:30:32.051Z,58.30
2022-11-05T17:33:02.105Z,58.44
2022-11-05T17:35:30.621Z,58.35
2022-11-05T17:37:59.441Z,58.55
2022-11-05T17:40:28.580Z,58.47
2022-11-05T17:42:57.389Z,58.69
2022-11-05T17:45:25.745Z,58.80
2022-11-05T17:47:54.680Z,58.77
2022-11-05T17:50:25.272Z,58.79
2022-11-05T17:52:53.617Z,58.70
2022-11-05T17:55:22.159Z,58.81
2022-11-05T17:57:52.119Z,58.64
2022-11-05T18:00:23.400Z,58.85
2022-11-05T18:02:54.945Z,58.91
2022-11-05T18:05:27.749Z,58.79
2022-11-05T18:07:57.225Z,58.94
2022-11-05T18:10:26.535Z,58.67
2022-11-05T18:12:54.879Z,58.72
2022-11-05T18:15:23.452Z,58.84
2022-11-05T18:17:51.829Z,58.97
2022-11-05T18:20:20.366Z,59.08
2022-11-05T18:22:52.062Z,58.80
2022-11-05T18:25:21.040Z,58.98
2022-11-05T18:27:49.808Z,59.26
2022-11-05T18:30:18.331Z,59.10
2022-11-05T18:32:47.830Z,59.33
2022-11-05T18:35:16.202Z,59.40
2022-11-05T18:37:44.683Z,59.25
2022-11-05T18:40:14.653Z,59.53
2022-11-05T18:42:43.884Z,59.35
2022-11-05T18:45:13.283Z,59.46
2022-11-05T18:47:42.354Z,59.53
2022-11-05T18:50:11.356Z,59.49
2022-11-05T18:52:39.865Z,59.38
2022-11-05T18:55:10.030Z,59.43
2022-11-05T18:57:40.001Z,59.65
2022-11-05T19:00:09.892Z,59.62
2022-11-05T19:02:38.570Z,59.25
2022-11-05T19:05:27.903Z,59.49
2022-11-05T19:07:56.167Z,59.24
2022-11-05T19:10:24.860Z,58.97
2022-11-05T19:12:54.921Z,59.05
2022-11-05T19:15:23.408Z,58.92
2022-11-05T19:17:51.836Z,58.50
2022-11-05T19:20:20.291Z,58.53
2022-11-05T19:22:48.648Z,58.77
2022-11-05T19:25:16.984Z,58.30
2022-11-05T19:27:45.420Z,58.84
2022-11-05T19:30:15.764Z,59.01
2022-11-05T19:32:44.105Z,58.92
2022-11-05T19:35:12.688Z,58.86
2022-11-05T19:37:41.020Z,58.97
2022-11-05T19:40:11.299Z,59.07
2022-11-05T19:42:40.090Z,59.37
2022-11-05T19:45:43.069Z,59.01
2022-11-05T19:47:59.970Z,59.21
2022-11-05T19:50:28.271Z,59.29
2022-11-05T19:52:56.645Z,59.29
2022-11-05T19:55:25.146Z,59.27
2022-11-05T19:57:53.489Z,59.03
2022-11-05T20:00:22.052Z,59.10
2022-11-05T20:02:50.608Z,59.42
2022-11-05T20:05:21.204Z,59.36
2022-11-05T20:07:52.769Z,59.41
2022-11-05T20:10:22.167Z,59.50
2022-11-05T20:12:50.896Z,59.62
2022-11-05T20:15:21.097Z,59.63
2022-11-05T20:17:51.397Z,59.46
2022-11-05T20:20:21.791Z,59.35
2022-11-05T20:22:52.360Z,59.71
2022-11-05T20:25:20.755Z,59.66
2022-11-05T20:27:49.141Z,59.79
2022-11-05T20:30:18.755Z,59.86
2022-11-05T20:32:47.567Z,59.98
2022-11-05T20:35:16.271Z,59.88
2022-11-05T20:37:49.778Z,60.01
2022-11-05T20:40:22.065Z,60.17
2022-11-05T20:42:50.338Z,59.87
2022-11-05T20:45:18.987Z,59.85
2022-11-05T20:47:47.401Z,59.88
2022-11-05T20:50:15.781Z,59.95
2022-11-05T20:52:45.597Z,59.92
2022-11-05T20:55:13.942Z,60.07
2022-11-05T20:57:42.294Z,60.12
2022-11-05T21:00:12.058Z,59.91
2022-11-05T21:02:41.995Z,59.81
2022-11-05T21:05:10.805Z,59.82
2022-11-05T21:07:39.837Z,59.87
2022-11-05T21:10:10.517Z,60.17
2022-11-05T21:12:39.180Z,60.37
2022-11-05T21:15:09.203Z,60.37
2022-11-05T21:17:37.688Z,60.73
2022-11-05T21:20:07.250Z,60.47
2022-11-05T21:22:35.631Z,60.86
2022-11-05T21:25:04.008Z,60.81
2022-11-05T21:27:33.944Z,60.85
2022-11-05T21:30:02.348Z,60.73
2022-11-05T21:32:30.836Z,61.17
2022-11-05T21:34:59.371Z,60.88
2022-11-05T21:37:27.883Z,61.05
2022-11-05T21:39:57.165Z,60.97
2022-11-05T21:42:25.680Z,61.20
2022-11-05T21:45:00.224Z,61.06
2022-11-05T21:47:29.457Z,61.22
2022-11-05T21:49:57.758Z,61.20
2022-11-05T21:52:43.405Z,61.39
2022-11-05T21:55:30.366Z,61.14
2022-11-05T21:58:17.500Z,61.46
2022-11-05T22:00:47.686Z,61.54
2022-11-05T22:03:15.945Z,61.35
2022-11-05T22:05:44.977Z,61.24
2022-11-05T22:08:13.639Z,61.32
2022-11-05T22:10:42.266Z,61.22
2022-11-05T22:13:10.633Z,61.06
2022-11-05T22:15:39.542Z,60.86
2022-11-05T22:18:09.541Z,61.14
2022-11-05T22:20:40.142Z,61.35
2022-11-05T22:23:11.426Z,61.10
2022-11-05T22:25:40.037Z,61.46
2022-11-05T22:28:08.471Z,61.23
2022-11-05T22:30:37.572Z,61.47
2022-11-05T22:33:05.982Z,61.32
2022-11-05T22:35:35.791Z,61.32
2022-11-05T22:38:04.697Z,60.95
2022-11-05T22:40:33.133Z,61.22
2022-11-05T22:43:02.426Z,61.11
2022-11-05T22:45:30.823Z,61.05
2022-11-05T22:48:01.545Z,60.76
2022-11-05T22:50:32.673Z,60.72
2022-11-05T22:53:02.474Z,60.74
2022-11-05T22:55:30.822Z,60.42
2022-11-05T22:57:59.203Z,60.67
2022-11-05T23:00:38.898Z,60.29
2022-11-05T23:03:07.500Z,60.64
2022-11-05T23:05:36.039Z,60.27
2022-11-05T23:08:23.274Z,60.11
2022-11-05T23:11:23.260Z,60.33
2022-11-05T23:13:51.706Z,60.33
2022-11-05T23:16:37.289Z,60.21
2022-11-05T23:19:23.069Z,59.80
2022-11-05T23:22:08.673Z,59.70
2022-11-05T23:24:38.514Z,59.47
2022-11-05T23:27:06.973Z,59.11
2022-11-05T23:29:35.638Z,59.24
2022-11-05T23:32:29.797Z,59.27
2022-11-05T23:34:59.905Z,59.10
2022-11-05T23:37:54.302Z,59.69
2022-11-05T23:40:27.618Z,59.36
2022-11-05T23:43:14.258Z,59.45
2022-11-05T23:46:00.796Z,59.74
2022-11-05T23:48:32.406Z,59.98
2022-11-05T23:51:02.921Z,59.84
2022-11-05T23:53:34.753Z,59.68
2022-11-05T23:56:07.916Z,59.88
2022-11-05T23:58:36.740Z,59.51
